createdAt,value
2017-11-24T00:02:17.110Z,4.30
2017-11-24T00:04:44.580Z,3.53
2017-11-24T00:07:12.035Z,3.80
2017-11-24T00:09:39.513Z,3.47
2017-11-24T00:12:06.959Z,3.53
2017-11-24T00:14:34.439Z,3.57
2017-11-24T00:17:01.881Z,3.47
2017-11-24T00:19:29.339Z,3.57
2017-11-24T00:21:56.774Z,3.40
2017-11-24T00:24:24.242Z,3.90
2017-11-24T00:26:51.788Z,3.90
2017-11-24T00:29:19.254Z,3.80
2017-11-24T00:31:46.719Z,4.37
2017-11-24T00:34:14.158Z,3.40
2017-11-24T00:36:41.620Z,2.80
2017-11-24T00:39:09.053Z,3.43
2017-11-24T00:41:36.519Z,3.83
2017-11-24T00:44:03.968Z,3.30
2017-11-24T00:46:31.567Z,3.57
2017-11-24T00:48:58.998Z,3.10
2017-11-24T00:51:26.474Z,3.70
2017-11-24T00:53:53.912Z,3.50
2017-11-24T00:56:21.378Z,3.60
2017-11-24T00:58:48.820Z,3.80
2017-11-24T01:01:16.282Z,3.53
2017-11-24T01:03:43.731Z,3.40
2017-11-24T01:06:11.187Z,4.00
2017-11-24T01:08:38.775Z,3.47
2017-11-24T01:11:06.217Z,3.93
2017-11-24T01:13:33.666Z,3.50
2017-11-24T01:16:01.100Z,4.20
2017-11-24T01:18:28.556Z,3.50
2017-11-24T01:20:55.997Z,3.27
2017-11-24T01:23:23.501Z,4.07
2017-11-24T01:25:50.951Z,3.20
2017-11-24T01:28:18.493Z,3.33
2017-11-24T01:30:45.963Z,3.57
2017-11-24T01:33:13.422Z,3.63
2017-11-24T01:35:40.864Z,3.90
2017-11-24T01:38:08.326Z,3.77
2017-11-24T01:40:40.860Z,4.10
2017-11-24T01:43:08.329Z,3.80
2017-11-24T01:45:35.795Z,4.53
2017-11-24T01:48:03.242Z,3.47
2017-11-24T01:50:31.231Z,3.70
2017-11-24T01:52:58.688Z,3.87
2017-11-24T01:55:26.152Z,4.30
2017-11-24T01:57:53.606Z,3.50
2017-11-24T02:00:21.193Z,4.63
2017-11-24T02:02:48.638Z,3.33
2017-11-24T02:05:16.089Z,4.30
2017-11-24T02:07:43.568Z,3.70
2017-11-24T02:10:11.045Z,4.30
2017-11-24T02:12:38.578Z,4.53
2017-11-24T02:15:06.062Z,4.10
2017-11-24T02:17:33.514Z,3.53
2017-11-24T02:20:00.967Z,3.90
2017-11-24T02:22:28.413Z,3.87
2017-11-24T02:24:55.870Z,4.30
2017-11-24T02:27:23.317Z,3.50
2017-11-24T02:29:50.805Z,3.60
2017-11-24T02:32:18.240Z,3.40
2017-11-24T02:34:45.675Z,3.80
2017-11-24T02:37:13.161Z,3.83
2017-11-24T02:39:40.683Z,4.03
2017-11-24T02:42:08.238Z,4.10
2017-11-24T02:44:35.720Z,3.60
2017-11-24T02:47:03.225Z,4.47
2017-11-24T02:49:30.671Z,4.20
2017-11-24T02:51:58.136Z,5.50
2017-11-24T02:54:25.652Z,4.27
2017-11-24T02:56:53.099Z,5.13
2017-11-24T02:59:20.529Z,3.30
2017-11-24T03:01:48.027Z,4.73
2017-11-24T03:04:15.481Z,4.10
2017-11-24T03:06:42.956Z,4.90
2017-11-24T03:09:10.410Z,5.07
2017-11-24T03:11:37.860Z,4.73
2017-11-24T03:14:05.335Z,4.40
2017-11-24T03:16:32.763Z,4.00
2017-11-24T03:19:00.237Z,5.50
2017-11-24T03:21:27.756Z,5.67
2017-11-24T03:23:55.228Z,6.10
2017-11-24T03:26:22.666Z,5.03
2017-11-24T03:28:50.151Z,4.50
2017-11-24T03:31:17.591Z,4.90
2017-11-24T03:33:45.140Z,5.10
2017-11-24T03:36:12.597Z,5.33
2017-11-24T03:38:40.051Z,4.60
2017-11-24T03:41:07.498Z,5.33
2017-11-24T03:43:34.957Z,4.60
2017-11-24T03:46:02.421Z,3.87
2017-11-24T03:48:29.893Z,4.70
2017-11-24T03:50:57.330Z,5.07
2017-11-24T03:53:24.774Z,4.77
2017-11-24T03:55:52.234Z,4.70
2017-11-24T03:58:19.694Z,4.10
2017-11-24T04:00:47.255Z,5.10
2017-11-24T04:03:14.709Z,4.30
2017-11-24T04:05:42.172Z,4.17
2017-11-24T04:08:09.607Z,4.10
2017-11-24T04:10:37.059Z,4.47
2017-11-24T04:13:04.513Z,4.27
2017-11-24T04:15:31.998Z,4.33
2017-11-24T04:17:59.434Z,4.57
2017-11-24T04:20:26.956Z,4.33
2017-11-24T04:22:54.400Z,4.13
2017-11-24T04:25:21.852Z,4.63
2017-11-24T04:27:49.324Z,5.00
2017-11-24T04:30:16.817Z,6.23
2017-11-24T04:32:44.291Z,4.90
2017-11-24T04:35:11.733Z,4.83
2017-11-24T04:37:39.222Z,5.50
2017-11-24T04:40:06.651Z,4.93
2017-11-24T04:42:34.105Z,5.70
2017-11-24T04:45:01.537Z,4.60
2017-11-24T04:47:29.004Z,4.07
2017-11-24T04:49:56.486Z,4.13
2017-11-24T04:52:23.939Z,5.50
2017-11-24T04:54:51.393Z,3.90
2017-11-24T04:57:18.871Z,4.93
2017-11-24T04:59:46.309Z,5.17
2017-11-24T05:02:13.769Z,5.23
2017-11-24T05:04:41.217Z,4.60
2017-11-24T05:07:08.694Z,4.63
2017-11-24T05:09:36.220Z,5.00
2017-11-24T05:12:03.666Z,4.13
2017-11-24T05:14:31.180Z,4.13
2017-11-24T05:16:58.740Z,4.77
2017-11-24T05:19:26.284Z,4.13
2017-11-24T05:21:53.733Z,4.80
2017-11-24T05:24:21.302Z,5.23
2017-11-24T05:26:48.739Z,5.73
2017-11-24T05:29:16.221Z,4.87
2017-11-24T05:31:43.672Z,4.70
2017-11-24T05:34:11.133Z,5.60
2017-11-24T05:36:38.589Z,5.27
2017-11-24T05:39:06.135Z,5.57
2017-11-24T05:41:33.583Z,4.87
2017-11-24T05:44:01.156Z,5.70
2017-11-24T05:46:28.602Z,5.87
2017-11-24T05:48:56.052Z,5.60
2017-11-24T05:51:23.506Z,5.40
2017-11-24T05:53:50.938Z,6.50
2017-11-24T05:56:18.388Z,6.90
2017-11-24T05:58:45.835Z,6.33
2017-11-24T06:01:13.303Z,6.20
2017-11-24T06:03:40.769Z,6.33
2017-11-24T06:06:08.255Z,6.10
2017-11-24T06:08:35.713Z,6.17
2017-11-24T06:11:03.182Z,6.20
2017-11-24T06:13:30.610Z,5.00
2017-11-24T06:15:58.082Z,5.00
2017-11-24T06:18:25.529Z,4.07
2017-11-24T06:20:53.009Z,4.40
2017-11-24T06:23:20.464Z,4.80
2017-11-24T06:25:48.075Z,4.70
2017-11-24T06:28:15.521Z,4.23
2017-11-24T06:30:42.969Z,4.53
2017-11-24T06:33:10.451Z,4.33
2017-11-24T06:35:37.912Z,5.70
2017-11-24T06:38:05.406Z,4.53
2017-11-24T06:40:32.850Z,5.27
2017-11-24T06:43:00.333Z,5.93
2017-11-24T06:45:27.766Z,5.30
2017-11-24T06:47:55.227Z,5.13
2017-11-24T06:50:22.666Z,4.60
2017-11-24T06:52:50.161Z,5.30
2017-11-24T06:55:17.613Z,6.00
2017-11-24T06:57:45.085Z,5.00
2017-11-24T07:00:12.538Z,5.03
2017-11-24T07:02:39.989Z,4.90
2017-11-24T07:05:07.458Z,5.57
2017-11-24T07:07:34.986Z,4.60
2017-11-24T07:10:02.453Z,5.30
2017-11-24T07:12:29.932Z,5.40
2017-11-24T07:14:57.429Z,5.60
2017-11-24T07:17:24.892Z,4.83
2017-11-24T07:19:52.382Z,5.37
2017-11-24T07:22:19.843Z,5.27
2017-11-24T07:24:47.276Z,5.30
2017-11-24T07:27:14.788Z,4.40
2017-11-24T07:29:42.244Z,5.30
2017-11-24T07:32:09.732Z,4.53
2017-11-24T07:34:37.267Z,4.60
2017-11-24T07:37:04.737Z,5.20
2017-11-24T07:39:32.180Z,4.50
2017-11-24T07:41:59.685Z,4.30
2017-11-24T07:44:27.605Z,4.60
2017-11-24T07:46:55.137Z,5.23
2017-11-24T07:49:22.581Z,4.70
2017-11-24T07:51:50.124Z,3.83
2017-11-24T07:54:17.594Z,5.10
2017-11-24T07:56:45.087Z,4.80
2017-11-24T07:59:12.537Z,5.30
2017-11-24T08:01:39.994Z,4.23
2017-11-24T08:04:07.510Z,4.57
2017-11-24T08:06:34.942Z,5.00
2017-11-24T08:09:02.423Z,4.23
2017-11-24T08:11:29.986Z,4.83
2017-11-24T08:13:57.526Z,4.63
2017-11-24T08:16:24.972Z,3.80
2017-11-24T08:18:52.427Z,4.30
2017-11-24T08:21:19.914Z,3.90
2017-11-24T08:23:47.375Z,4.70
2017-11-24T08:26:14.837Z,4.07
2017-11-24T08:28:42.297Z,4.27
2017-11-24T08:31:09.745Z,5.10
2017-11-24T08:33:37.313Z,4.97
2017-11-24T08:36:04.841Z,6.20
2017-11-24T08:38:32.307Z,6.63
2017-11-24T08:40:59.768Z,7.30
2017-11-24T08:43:27.201Z,9.10
2017-11-24T08:45:54.679Z,7.80
2017-11-24T08:48:27.857Z,6.10
2017-11-24T08:50:55.336Z,5.63
2017-11-24T08:53:22.796Z,6.20
2017-11-24T08:55:50.254Z,5.13
2017-11-24T08:58:17.813Z,4.63
2017-11-24T09:00:45.288Z,4.80
2017-11-24T09:03:12.734Z,4.43
2017-11-24T09:05:40.204Z,5.50
2017-11-24T09:08:07.643Z,3.73
2017-11-24T09:10:35.127Z,5.70
2017-11-24T09:13:02.601Z,3.87
2017-11-24T09:15:30.065Z,3.93
2017-11-24T09:17:57.532Z,3.73
2017-11-24T09:20:24.961Z,4.53
2017-11-24T09:22:52.420Z,3.70
2017-11-24T09:25:19.896Z,3.67
2017-11-24T09:27:47.347Z,4.57
2017-11-24T09:30:14.779Z,4.33
2017-11-24T09:32:42.249Z,4.67
2017-11-24T09:35:09.730Z,4.03
2017-11-24T09:37:37.187Z,4.10
2017-11-24T09:40:04.632Z,3.40
2017-11-24T09:42:32.125Z,4.73
2017-11-24T09:44:59.583Z,3.80
2017-11-24T09:47:27.035Z,3.83
2017-11-24T09:49:54.494Z,3.37
2017-11-24T09:52:21.922Z,3.60
2017-11-24T09:54:49.374Z,3.47
2017-11-24T09:57:16.805Z,3.50
2017-11-24T09:59:44.314Z,3.80
2017-11-24T10:02:11.756Z,3.90
2017-11-24T10:04:39.325Z,3.47
2017-11-24T10:07:06.821Z,3.50
2017-11-24T10:09:34.336Z,4.30
2017-11-24T10:12:01.782Z,4.23
2017-11-24T10:14:29.410Z,2.97
2017-11-24T10:16:56.845Z,4.20
2017-11-24T10:19:24.355Z,4.30
2017-11-24T10:21:57.278Z,3.90
2017-11-24T10:24:24.798Z,5.93
2017-11-24T10:26:52.268Z,5.47
2017-11-24T10:29:19.743Z,4.43
2017-11-24T10:31:48.187Z,3.90
2017-11-24T10:34:15.673Z,4.50
2017-11-24T10:36:43.151Z,4.47
2017-11-24T10:39:10.610Z,5.07
2017-11-24T10:41:38.078Z,4.00
2017-11-24T10:44:05.524Z,5.33
2017-11-24T10:46:33.002Z,4.83
2017-11-24T10:49:00.445Z,3.77
2017-11-24T10:51:27.898Z,4.30
2017-11-24T10:53:55.369Z,3.90
2017-11-24T10:56:22.818Z,4.80
2017-11-24T10:58:50.334Z,3.30
2017-11-24T11:01:17.875Z,3.87
2017-11-24T11:03:45.339Z,4.47
2017-11-24T11:06:12.813Z,3.83
2017-11-24T11:08:40.282Z,3.70
2017-11-24T11:11:07.733Z,3.23
2017-11-24T11:13:35.203Z,2.90
2017-11-24T11:16:02.732Z,4.40
2017-11-24T11:18:30.202Z,3.87
2017-11-24T11:20:57.645Z,4.60
2017-11-24T11:23:25.086Z,4.10
2017-11-24T11:25:52.568Z,3.60
2017-11-24T11:28:20.059Z,3.50
2017-11-24T11:30:47.537Z,3.30
2017-11-24T11:33:14.982Z,3.60
2017-11-24T11:35:42.448Z,3.50
2017-11-24T11:38:09.948Z,3.83
2017-11-24T11:40:37.416Z,3.97
2017-11-24T11:43:04.858Z,3.57
2017-11-24T11:45:32.343Z,4.90
2017-11-24T11:47:59.868Z,3.57
2017-11-24T11:50:27.395Z,3.03
2017-11-24T11:52:54.828Z,3.07
2017-11-24T11:55:22.312Z,3.37
2017-11-24T11:57:49.819Z,3.43
2017-11-24T12:00:17.221Z,3.10
2017-11-24T12:02:44.815Z,4.20
2017-11-24T12:05:12.273Z,3.50
2017-11-24T12:07:39.845Z,3.57
2017-11-24T12:10:07.289Z,2.93
2017-11-24T12:12:34.770Z,3.70
2017-11-24T12:15:02.224Z,3.50
2017-11-24T12:17:29.777Z,3.17
2017-11-24T12:19:57.222Z,3.47
2017-11-24T12:22:24.689Z,3.97
2017-11-24T12:24:52.150Z,3.10
2017-11-24T12:27:19.600Z,3.77
2017-11-24T12:29:47.069Z,3.10
2017-11-24T12:32:14.600Z,3.57
2017-11-24T12:34:42.083Z,3.77
2017-11-24T12:37:09.513Z,2.80
2017-11-24T12:39:37.068Z,3.57
2017-11-24T12:42:04.544Z,4.60
2017-11-24T12:44:32.073Z,3.00
2017-11-24T12:46:59.511Z,3.53
2017-11-24T12:49:26.993Z,3.33
2017-11-24T12:51:54.469Z,3.53
2017-11-24T12:54:21.910Z,3.70
2017-11-24T12:56:49.457Z,4.77
2017-11-24T12:59:16.896Z,3.53
2017-11-24T13:01:44.380Z,4.43
2017-11-24T13:04:11.813Z,3.60
2017-11-24T13:06:39.294Z,4.03
2017-11-24T13:09:06.749Z,3.37
2017-11-24T13:11:34.246Z,3.77
2017-11-24T13:14:01.705Z,4.40
2017-11-24T13:16:29.175Z,3.57
2017-11-24T13:18:56.683Z,3.30
2017-11-24T13:21:24.146Z,3.40
2017-11-24T13:23:51.578Z,4.03
2017-11-24T13:26:19.015Z,5.13
2017-11-24T13:28:46.514Z,5.43
2017-11-24T13:31:13.946Z,3.97
2017-11-24T13:33:41.526Z,3.20
2017-11-24T13:36:08.971Z,3.17
2017-11-24T13:38:36.438Z,4.33
2017-11-24T13:41:03.876Z,3.63
2017-11-24T13:43:31.336Z,5.57
2017-11-24T13:45:58.771Z,5.67
2017-11-24T13:48:26.253Z,4.47
2017-11-24T13:50:53.810Z,4.43
2017-11-24T13:53:21.305Z,3.97
2017-11-24T13:55:48.860Z,4.77
2017-11-24T13:58:16.332Z,4.53
2017-11-24T14:00:43.775Z,4.63
2017-11-24T14:03:11.257Z,4.20
2017-11-24T14:05:38.687Z,4.30
2017-11-24T14:08:06.129Z,4.03
2017-11-24T14:10:33.602Z,3.50
2017-11-24T14:13:01.051Z,4.23
2017-11-24T14:15:28.514Z,4.57
2017-11-24T14:17:55.968Z,3.80
2017-11-24T14:20:23.484Z,4.70
2017-11-24T14:22:50.915Z,3.90
2017-11-24T14:25:18.369Z,4.63
2017-11-24T14:27:45.807Z,3.47
2017-11-24T14:30:13.254Z,4.27
2017-11-24T14:32:40.685Z,3.80
2017-11-24T14:35:08.151Z,4.70
2017-11-24T14:37:35.654Z,5.30
2017-11-24T14:40:03.134Z,4.70
2017-11-24T14:42:30.598Z,3.63
2017-11-24T14:44:58.034Z,4.00
2017-11-24T14:47:25.525Z,4.10
2017-11-24T14:49:52.962Z,5.37
2017-11-24T14:52:20.545Z,4.63
2017-11-24T14:54:48.004Z,3.97
2017-11-24T14:57:15.484Z,4.30
2017-11-24T14:59:42.942Z,4.10
2017-11-24T15:02:10.425Z,3.97
2017-11-24T15:04:37.925Z,4.43
2017-11-24T15:07:05.397Z,4.17
2017-11-24T15:09:32.872Z,3.70
2017-11-24T15:12:00.310Z,5.10
2017-11-24T15:14:27.835Z,4.80
2017-11-24T15:16:55.267Z,2.13
2017-11-24T15:19:22.752Z,2.50
2017-11-24T15:21:50.248Z,2.60
2017-11-24T15:24:17.706Z,1.60
2017-11-24T15:26:45.164Z,1.20
2017-11-24T15:29:12.646Z,1.27
2017-11-24T15:31:40.129Z,1.30
2017-11-24T15:34:07.579Z,0.87
2017-11-24T15:36:35.039Z,0.80
2017-11-24T15:39:02.488Z,0.80
2017-11-24T15:41:29.940Z,1.10
2017-11-24T15:43:57.387Z,1.30
2017-11-24T15:46:24.857Z,1.17
2017-11-24T15:48:52.291Z,0.80
2017-11-24T15:51:19.743Z,0.90
2017-11-24T15:53:47.170Z,0.67
2017-11-24T15:56:14.712Z,0.90
2017-11-24T15:58:42.172Z,0.80
2017-11-24T16:01:09.683Z,2.10
2017-11-24T16:03:37.128Z,2.10
2017-11-24T16:06:04.634Z,2.40
2017-11-24T16:08:32.104Z,2.40
2017-11-24T16:10:59.659Z,0.90
2017-11-24T16:13:27.173Z,0.60
2017-11-24T16:15:54.630Z,1.20
2017-11-24T16:18:22.098Z,5.83
2017-11-24T16:20:49.530Z,2.43
2017-11-24T16:23:17.008Z,0.50
2017-11-24T16:25:44.491Z,0.67
2017-11-24T16:28:11.946Z,1.10
2017-11-24T16:30:39.433Z,1.03
2017-11-24T16:33:06.883Z,0.80
2017-11-24T16:35:34.492Z,0.80
2017-11-24T16:38:01.950Z,0.77
2017-11-24T16:40:29.457Z,1.33
2017-11-24T16:42:57.005Z,1.30
2017-11-24T16:45:24.564Z,1.83
2017-11-24T16:47:52.015Z,1.33
2017-11-24T16:50:19.498Z,1.70
2017-11-24T16:52:46.944Z,1.13
2017-11-24T16:55:14.388Z,1.33
2017-11-24T16:57:41.938Z,1.80
2017-11-24T17:00:09.403Z,1.50
2017-11-24T17:02:36.900Z,1.63
2017-11-24T17:05:04.331Z,1.50
2017-11-24T17:07:31.867Z,2.00
2017-11-24T17:09:59.314Z,2.23
2017-11-24T17:12:27.638Z,7.03
2017-11-24T17:14:55.102Z,5.90
2017-11-24T17:17:22.601Z,5.90
2017-11-24T17:19:50.091Z,4.37
2017-11-24T17:22:17.582Z,2.67
2017-11-24T17:24:45.145Z,3.53
2017-11-24T17:27:12.681Z,3.77
2017-11-24T17:29:40.151Z,22.20
2017-11-24T17:32:07.597Z,24.20
2017-11-24T17:34:35.118Z,4.07
2017-11-24T17:37:02.556Z,2.73
2017-11-24T17:39:30.013Z,3.33
2017-11-24T17:41:57.499Z,2.00
2017-11-24T17:44:24.961Z,1.47
2017-11-24T17:46:52.422Z,1.23
2017-11-24T17:49:20.069Z,1.60
2017-11-24T17:51:47.505Z,1.93
2017-11-24T17:54:15.004Z,1.60
2017-11-24T17:56:42.452Z,1.60
2017-11-24T17:59:09.996Z,1.70
2017-11-24T18:01:37.434Z,1.27
2017-11-24T18:04:04.911Z,1.30
2017-11-24T18:06:32.373Z,2.20
2017-11-24T18:08:59.838Z,2.70
2017-11-24T18:11:27.311Z,1.77
2017-11-24T18:13:54.747Z,2.00
2017-11-24T18:16:22.226Z,2.07
2017-11-24T18:18:49.700Z,3.83
2017-11-24T18:21:17.156Z,7.60
2017-11-24T18:23:44.616Z,5.87
2017-11-24T18:26:12.164Z,5.87
2017-11-24T18:28:39.625Z,4.07
2017-11-24T18:31:07.106Z,3.53
2017-11-24T18:33:34.581Z,2.33
2017-11-24T18:36:02.060Z,2.50
2017-11-24T18:38:29.505Z,2.60
2017-11-24T18:40:56.953Z,3.47
2017-11-24T18:43:24.425Z,2.93
2017-11-24T18:45:51.873Z,3.37
2017-11-24T18:48:19.347Z,3.20
2017-11-24T18:50:46.807Z,3.00
2017-11-24T18:53:14.307Z,3.10
2017-11-24T18:55:41.780Z,3.37
2017-11-24T18:58:09.237Z,3.80
2017-11-24T19:00:36.669Z,3.37
2017-11-24T19:03:04.157Z,4.00
2017-11-24T19:05:32.428Z,3.93
2017-11-24T19:07:59.992Z,4.17
2017-11-24T19:10:27.775Z,3.30
2017-11-24T19:12:55.330Z,2.40
2017-11-24T19:15:22.857Z,3.50
2017-11-24T19:17:50.378Z,2.87
2017-11-24T19:20:18.132Z,2.97
2017-11-24T19:22:45.668Z,3.30
2017-11-24T19:25:13.126Z,3.20
2017-11-24T19:27:40.696Z,4.00
2017-11-24T19:30:08.210Z,3.43
2017-11-24T19:32:35.663Z,3.87
2017-11-24T19:35:03.157Z,3.10
2017-11-24T19:37:30.639Z,3.10
2017-11-24T19:39:58.103Z,2.57
2017-11-24T19:42:26.293Z,2.93
2017-11-24T19:44:54.011Z,2.13
2017-11-24T19:47:22.455Z,2.70
2017-11-24T19:49:50.218Z,1.90
2017-11-24T19:52:17.908Z,2.60
2017-11-24T19:54:45.463Z,1.70
2017-11-24T19:57:13.026Z,2.23
2017-11-24T19:59:40.574Z,2.50
2017-11-24T20:02:08.041Z,2.43
2017-11-24T20:04:35.483Z,2.80
2017-11-24T20:07:02.954Z,2.27
2017-11-24T20:09:30.396Z,3.00
2017-11-24T20:11:57.859Z,2.80
2017-11-24T20:14:25.347Z,2.73
2017-11-24T20:16:52.888Z,3.03
2017-11-24T20:19:20.421Z,3.53
2017-11-24T20:21:47.877Z,4.57
2017-11-24T20:24:15.353Z,3.80
2017-11-24T20:26:43.080Z,4.57
2017-11-24T20:29:10.590Z,4.33
2017-11-24T20:31:39.937Z,5.00
2017-11-24T20:34:07.480Z,5.70
2017-11-24T20:36:34.991Z,5.97
2017-11-24T20:39:02.469Z,6.50
2017-11-24T20:41:29.962Z,6.87
2017-11-24T20:43:58.805Z,7.30
2017-11-24T20:46:26.283Z,7.93
2017-11-24T20:48:53.778Z,10.20
2017-11-24T20:51:21.245Z,10.30
2017-11-24T20:53:48.686Z,9.27
2017-11-24T20:56:16.848Z,8.90
2017-11-24T20:58:44.311Z,11.00
2017-11-24T21:01:11.796Z,11.30
2017-11-24T21:03:39.259Z,10.40
2017-11-24T21:06:06.732Z,11.10
2017-11-24T21:08:34.206Z,11.53
2017-11-24T21:11:01.769Z,10.47
2017-11-24T21:13:29.252Z,12.50
2017-11-24T21:15:56.753Z,14.40
2017-11-24T21:18:24.264Z,11.13
2017-11-24T21:20:52.040Z,13.07
2017-11-24T21:23:19.534Z,14.23
2017-11-24T21:25:47.026Z,12.20
2017-11-24T21:28:14.556Z,13.73
2017-11-24T21:30:42.029Z,15.13
2017-11-24T21:33:09.579Z,14.20
2017-11-24T21:35:37.029Z,15.07
2017-11-24T21:38:04.498Z,12.80
2017-11-24T21:40:31.964Z,14.67
2017-11-24T21:42:59.435Z,14.03
2017-11-24T21:45:26.885Z,12.43
2017-11-24T21:47:54.370Z,10.73
2017-11-24T21:50:21.828Z,10.70
2017-11-24T21:52:49.290Z,9.00
2017-11-24T21:55:16.755Z,11.27
2017-11-24T21:57:44.219Z,11.30
2017-11-24T22:00:11.688Z,11.33
2017-11-24T22:02:39.151Z,14.57
2017-11-24T22:05:06.601Z,18.90
2017-11-24T22:07:34.091Z,13.90
2017-11-24T22:10:01.573Z,11.90
2017-11-24T22:12:29.030Z,15.03
2017-11-24T22:14:56.519Z,13.53
2017-11-24T22:17:23.962Z,11.90
2017-11-24T22:19:51.461Z,11.60
2017-11-24T22:22:18.963Z,11.70
2017-11-24T22:24:46.431Z,14.23
2017-11-24T22:27:13.873Z,22.60
2017-11-24T22:29:41.361Z,18.23
2017-11-24T22:32:08.823Z,11.50
2017-11-24T22:34:36.290Z,11.23
2017-11-24T22:37:03.730Z,10.43
2017-11-24T22:39:31.297Z,12.90
2017-11-24T22:41:58.766Z,11.13
2017-11-24T22:44:26.241Z,11.40
2017-11-24T22:46:53.679Z,12.37
2017-11-24T22:49:21.157Z,11.17
2017-11-24T22:51:48.619Z,11.83
2017-11-24T22:54:16.098Z,12.27
2017-11-24T22:56:43.597Z,11.60
2017-11-24T22:59:11.098Z,10.37
2017-11-24T23:01:38.559Z,11.40
2017-11-24T23:04:06.030Z,15.30
2017-11-24T23:06:33.520Z,18.53
2017-11-24T23:09:00.977Z,19.27
2017-11-24T23:11:28.439Z,16.70
2017-11-24T23:13:55.897Z,15.40
2017-11-24T23:16:23.368Z,13.97
2017-11-24T23:18:50.816Z,13.60
2017-11-24T23:21:18.364Z,15.17
2017-11-24T23:23:45.914Z,15.13
2017-11-24T23:26:13.389Z,15.53
2017-11-24T23:28:40.836Z,16.77
2017-11-24T23:31:08.320Z,14.70
2017-11-24T23:33:35.755Z,15.93
2017-11-24T23:36:03.214Z,15.00
2017-11-24T23:38:30.650Z,15.30
2017-11-24T23:40:58.114Z,17.13
2017-11-24T23:43:25.584Z,15.20
2017-11-24T23:45:53.122Z,17.57
2017-11-24T23:48:20.608Z,14.57
2017-11-24T23:50:48.139Z,14.90
2017-11-24T23:53:15.629Z,13.80
2017-11-24T23:55:43.066Z,15.03
2017-11-24T23:58:10.573Z,15.73
